sensor_id;sensor_type;location;lat;lon;timestamp;P1;durP1;ratioP1;P2;durP2;ratioP2
47545;SDS011;50104;52.002;4.688;2023-06-26T00:03:37;5.78;;;4.28;;
47545;SDS011;50104;52.002;4.688;2023-06-26T00:08:37;4.63;;;4.10;;
47545;SDS011;50104;52.002;4.688;2023-06-26T00:13:38;4.60;;;4.20;;
47545;SDS011;50104;52.002;4.688;2023-06-26T00:18:39;4.80;;;4.40;;
47545;SDS011;50104;52.002;4.688;2023-06-26T00:23:40;6.28;;;4.32;;
47545;SDS011;50104;52.002;4.688;2023-06-26T00:28:41;5.15;;;4.65;;
47545;SDS011;50104;52.002;4.688;2023-06-26T00:33:41;8.93;;;4.35;;
47545;SDS011;50104;52.002;4.688;2023-06-26T00:38:42;5.95;;;4.03;;
47545;SDS011;50104;52.002;4.688;2023-06-26T00:43:43;6.53;;;4.07;;
47545;SDS011;50104;52.002;4.688;2023-06-26T00:48:44;5.95;;;4.07;;
47545;SDS011;50104;52.002;4.688;2023-06-26T00:53:47;4.70;;;3.80;;
47545;SDS011;50104;52.002;4.688;2023-06-26T00:58:48;7.65;;;3.67;;
47545;SDS011;50104;52.002;4.688;2023-06-26T01:03:49;5.97;;;3.45;;
47545;SDS011;50104;52.002;4.688;2023-06-26T01:08:53;6.18;;;3.78;;
47545;SDS011;50104;52.002;4.688;2023-06-26T01:13:54;6.65;;;3.53;;
47545;SDS011;50104;52.002;4.688;2023-06-26T01:18:57;8.23;;;3.95;;
47545;SDS011;50104;52.002;4.688;2023-06-26T01:24:00;7.32;;;3.42;;
47545;SDS011;50104;52.002;4.688;2023-06-26T01:29:20;7.30;;;3.67;;
47545;SDS011;50104;52.002;4.688;2023-06-26T01:34:23;9.27;;;3.85;;
47545;SDS011;50104;52.002;4.688;2023-06-26T01:39:25;6.57;;;3.60;;
47545;SDS011;50104;52.002;4.688;2023-06-26T01:44:26;9.38;;;4.15;;
47545;SDS011;50104;52.002;4.688;2023-06-26T02:00:20;15.35;;;5.05;;
47545;SDS011;50104;52.002;4.688;2023-06-26T02:05:21;8.38;;;4.22;;
47545;SDS011;50104;52.002;4.688;2023-06-26T02:10:23;7.63;;;4.18;;
47545;SDS011;50104;52.002;4.688;2023-06-26T02:15:24;12.73;;;4.75;;
47545;SDS011;50104;52.002;4.688;2023-06-26T02:20:25;9.50;;;4.28;;
47545;SDS011;50104;52.002;4.688;2023-06-26T02:25:26;13.32;;;5.18;;
47545;SDS011;50104;52.002;4.688;2023-06-26T02:30:26;13.25;;;4.28;;
47545;SDS011;50104;52.002;4.688;2023-06-26T02:35:27;10.25;;;4.32;;
47545;SDS011;50104;52.002;4.688;2023-06-26T02:40:28;12.52;;;4.57;;
47545;SDS011;50104;52.002;4.688;2023-06-26T02:45:29;11.18;;;4.82;;
47545;SDS011;50104;52.002;4.688;2023-06-26T02:50:30;9.75;;;4.22;;
47545;SDS011;50104;52.002;4.688;2023-06-26T02:55:30;15.80;;;4.53;;
47545;SDS011;50104;52.002;4.688;2023-06-26T03:00:33;8.38;;;3.70;;
47545;SDS011;50104;52.002;4.688;2023-06-26T03:05:34;14.80;;;4.10;;
47545;SDS011;50104;52.002;4.688;2023-06-26T03:10:35;9.48;;;4.35;;
47545;SDS011;50104;52.002;4.688;2023-06-26T03:15:35;10.65;;;4.15;;
47545;SDS011;50104;52.002;4.688;2023-06-26T03:20:36;11.45;;;4.43;;
47545;SDS011;50104;52.002;4.688;2023-06-26T03:25:37;10.77;;;4.28;;
47545;SDS011;50104;52.002;4.688;2023-06-26T03:30:38;11.63;;;4.55;;
47545;SDS011;50104;52.002;4.688;2023-06-26T03:35:39;12.65;;;4.80;;
47545;SDS011;50104;52.002;4.688;2023-06-26T03:40:40;12.93;;;4.40;;
47545;SDS011;50104;52.002;4.688;2023-06-26T03:45:40;9.35;;;3.78;;
47545;SDS011;50104;52.002;4.688;2023-06-26T03:50:41;13.35;;;4.00;;
47545;SDS011;50104;52.002;4.688;2023-06-26T03:55:42;10.32;;;3.83;;
47545;SDS011;50104;52.002;4.688;2023-06-26T04:00:43;10.82;;;3.90;;
47545;SDS011;50104;52.002;4.688;2023-06-26T04:05:44;10.85;;;4.00;;
47545;SDS011;50104;52.002;4.688;2023-06-26T04:10:44;12.00;;;4.38;;
47545;SDS011;50104;52.002;4.688;2023-06-26T04:15:45;9.13;;;4.13;;
47545;SDS011;50104;52.002;4.688;2023-06-26T04:26:11;16.52;;;4.97;;
47545;SDS011;50104;52.002;4.688;2023-06-26T04:31:15;9.38;;;4.20;;
47545;SDS011;50104;52.002;4.688;2023-06-26T04:36:19;10.18;;;3.80;;
47545;SDS011;50104;52.002;4.688;2023-06-26T04:41:21;9.32;;;4.45;;
47545;SDS011;50104;52.002;4.688;2023-06-26T04:46:22;11.43;;;3.35;;
47545;SDS011;50104;52.002;4.688;2023-06-26T04:51:22;12.27;;;3.67;;
47545;SDS011;50104;52.002;4.688;2023-06-26T04:56:28;9.30;;;3.60;;
47545;SDS011;50104;52.002;4.688;2023-06-26T05:01:30;9.95;;;4.03;;
47545;SDS011;50104;52.002;4.688;2023-06-26T05:06:32;10.35;;;3.53;;
47545;SDS011;50104;52.002;4.688;2023-06-26T05:11:33;10.07;;;3.25;;
47545;SDS011;50104;52.002;4.688;2023-06-26T05:16:33;7.15;;;3.38;;
47545;SDS011;50104;52.002;4.688;2023-06-26T05:21:35;8.93;;;3.10;;
47545;SDS011;50104;52.002;4.688;2023-06-26T05:26:36;4.13;;;2.70;;
47545;SDS011;50104;52.002;4.688;2023-06-26T05:31:39;8.38;;;3.08;;
47545;SDS011;50104;52.002;4.688;2023-06-26T05:36:42;5.97;;;3.00;;
47545;SDS011;50104;52.002;4.688;2023-06-26T05:41:44;3.65;;;2.67;;
47545;SDS011;50104;52.002;4.688;2023-06-26T05:46:45;7.38;;;3.10;;
47545;SDS011;50104;52.002;4.688;2023-06-26T05:51:46;9.57;;;3.72;;
47545;SDS011;50104;52.002;4.688;2023-06-26T05:56:47;5.95;;;2.95;;
47545;SDS011;50104;52.002;4.688;2023-06-26T06:01:48;5.78;;;2.58;;
47545;SDS011;50104;52.002;4.688;2023-06-26T06:06:49;4.63;;;2.00;;
47545;SDS011;50104;52.002;4.688;2023-06-26T06:11:50;5.63;;;1.80;;
47545;SDS011;50104;52.002;4.688;2023-06-26T06:16:50;2.92;;;1.35;;
47545;SDS011;50104;52.002;4.688;2023-06-26T06:21:51;3.42;;;1.77;;
47545;SDS011;50104;52.002;4.688;2023-06-26T06:26:52;3.33;;;1.30;;
47545;SDS011;50104;52.002;4.688;2023-06-26T06:31:53;3.67;;;1.27;;
47545;SDS011;50104;52.002;4.688;2023-06-26T06:36:54;3.97;;;1.15;;
47545;SDS011;50104;52.002;4.688;2023-06-26T06:41:55;5.38;;;1.30;;
47545;SDS011;50104;52.002;4.688;2023-06-26T06:46:56;3.70;;;1.27;;
47545;SDS011;50104;52.002;4.688;2023-06-26T06:51:56;5.32;;;1.67;;
47545;SDS011;50104;52.002;4.688;2023-06-26T06:56:57;7.13;;;1.70;;
47545;SDS011;50104;52.002;4.688;2023-06-26T07:01:58;4.65;;;1.25;;
47545;SDS011;50104;52.002;4.688;2023-06-26T07:06:59;4.40;;;1.30;;
47545;SDS011;50104;52.002;4.688;2023-06-26T07:11:59;4.97;;;1.23;;
47545;SDS011;50104;52.002;4.688;2023-06-26T07:17:00;5.00;;;1.13;;
47545;SDS011;50104;52.002;4.688;2023-06-26T07:22:01;3.97;;;1.08;;
47545;SDS011;50104;52.002;4.688;2023-06-26T07:27:02;7.53;;;1.50;;
47545;SDS011;50104;52.002;4.688;2023-06-26T07:32:03;4.28;;;1.42;;
47545;SDS011;50104;52.002;4.688;2023-06-26T07:37:05;2.75;;;1.02;;
47545;SDS011;50104;52.002;4.688;2023-06-26T07:42:06;2.47;;;1.40;;
47545;SDS011;50104;52.002;4.688;2023-06-26T07:47:06;3.58;;;1.00;;
47545;SDS011;50104;52.002;4.688;2023-06-26T07:52:07;5.22;;;1.50;;
47545;SDS011;50104;52.002;4.688;2023-06-26T07:57:10;2.90;;;1.15;;
47545;SDS011;50104;52.002;4.688;2023-06-26T08:02:12;5.30;;;1.38;;
47545;SDS011;50104;52.002;4.688;2023-06-26T08:07:13;3.72;;;1.20;;
47545;SDS011;50104;52.002;4.688;2023-06-26T08:12:14;2.50;;;1.38;;
47545;SDS011;50104;52.002;4.688;2023-06-26T08:17:15;6.60;;;1.35;;
47545;SDS011;50104;52.002;4.688;2023-06-26T08:22:17;4.43;;;1.30;;
47545;SDS011;50104;52.002;4.688;2023-06-26T08:27:18;4.88;;;1.30;;
47545;SDS011;50104;52.002;4.688;2023-06-26T08:32:18;4.18;;;1.15;;
47545;SDS011;50104;52.002;4.688;2023-06-26T08:37:19;3.22;;;1.30;;
47545;SDS011;50104;52.002;4.688;2023-06-26T08:42:20;2.58;;;1.23;;
47545;SDS011;50104;52.002;4.688;2023-06-26T08:47:21;3.83;;;1.20;;
47545;SDS011;50104;52.002;4.688;2023-06-26T08:52:23;2.97;;;1.10;;
47545;SDS011;50104;52.002;4.688;2023-06-26T08:57:25;3.03;;;1.30;;
47545;SDS011;50104;52.002;4.688;2023-06-26T09:02:28;2.33;;;1.30;;
47545;SDS011;50104;52.002;4.688;2023-06-26T09:07:29;3.20;;;1.33;;
47545;SDS011;50104;52.002;4.688;2023-06-26T09:12:30;5.53;;;1.20;;
47545;SDS011;50104;52.002;4.688;2023-06-26T09:17:38;4.97;;;1.50;;
47545;SDS011;50104;52.002;4.688;2023-06-26T09:22:43;1.98;;;1.00;;
47545;SDS011;50104;52.002;4.688;2023-06-26T09:27:48;4.37;;;1.20;;
47545;SDS011;50104;52.002;4.688;2023-06-26T09:32:49;2.88;;;1.50;;
47545;SDS011;50104;52.002;4.688;2023-06-26T09:37:57;4.43;;;1.30;;
47545;SDS011;50104;52.002;4.688;2023-06-26T09:43:05;4.47;;;1.30;;
47545;SDS011;50104;52.002;4.688;2023-06-26T09:48:07;3.65;;;1.50;;
47545;SDS011;50104;52.002;4.688;2023-06-26T09:53:13;3.25;;;1.23;;
47545;SDS011;50104;52.002;4.688;2023-06-26T09:58:14;4.43;;;1.30;;
47545;SDS011;50104;52.002;4.688;2023-06-26T10:03:19;4.77;;;0.90;;
47545;SDS011;50104;52.002;4.688;2023-06-26T10:08:20;3.10;;;1.25;;
47545;SDS011;50104;52.002;4.688;2023-06-26T10:13:22;6.45;;;1.65;;
47545;SDS011;50104;52.002;4.688;2023-06-26T10:18:38;3.35;;;1.20;;
47545;SDS011;50104;52.002;4.688;2023-06-26T10:23:40;2.63;;;1.38;;
47545;SDS011;50104;52.002;4.688;2023-06-26T10:28:44;5.05;;;1.00;;
47545;SDS011;50104;52.002;4.688;2023-06-26T10:33:50;4.33;;;1.10;;
47545;SDS011;50104;52.002;4.688;2023-06-26T10:38:55;6.20;;;1.38;;
47545;SDS011;50104;52.002;4.688;2023-06-26T10:49:03;3.05;;;1.10;;
47545;SDS011;50104;52.002;4.688;2023-06-26T10:54:04;4.63;;;1.00;;
47545;SDS011;50104;52.002;4.688;2023-06-26T10:59:20;3.28;;;0.85;;
47545;SDS011;50104;52.002;4.688;2023-06-26T11:04:36;2.25;;;0.73;;
47545;SDS011;50104;52.002;4.688;2023-06-26T11:15:05;1.88;;;0.90;;
47545;SDS011;50104;52.002;4.688;2023-06-26T11:20:14;2.45;;;0.90;;
47545;SDS011;50104;52.002;4.688;2023-06-26T11:25:19;2.58;;;0.95;;
47545;SDS011;50104;52.002;4.688;2023-06-26T11:30:24;4.15;;;0.80;;
47545;SDS011;50104;52.002;4.688;2023-06-26T11:35:26;1.48;;;0.70;;
47545;SDS011;50104;52.002;4.688;2023-06-26T11:40:33;2.10;;;0.90;;
47545;SDS011;50104;52.002;4.688;2023-06-26T11:45:36;2.85;;;0.70;;
47545;SDS011;50104;52.002;4.688;2023-06-26T11:50:38;3.47;;;1.00;;
47545;SDS011;50104;52.002;4.688;2023-06-26T11:55:42;1.58;;;0.80;;
47545;SDS011;50104;52.002;4.688;2023-06-26T12:00:47;1.30;;;0.75;;
47545;SDS011;50104;52.002;4.688;2023-06-26T12:05:48;2.88;;;0.90;;
47545;SDS011;50104;52.002;4.688;2023-06-26T12:10:52;2.33;;;0.75;;
47545;SDS011;50104;52.002;4.688;2023-06-26T12:15:53;3.20;;;0.60;;
47545;SDS011;50104;52.002;4.688;2023-06-26T12:20:54;1.17;;;0.70;;
47545;SDS011;50104;52.002;4.688;2023-06-26T12:25:55;2.75;;;0.82;;
47545;SDS011;50104;52.002;4.688;2023-06-26T12:31:14;1.73;;;0.70;;
47545;SDS011;50104;52.002;4.688;2023-06-26T12:36:16;1.60;;;0.60;;
47545;SDS011;50104;52.002;4.688;2023-06-26T12:41:17;3.45;;;0.90;;
47545;SDS011;50104;52.002;4.688;2023-06-26T12:46:20;1.80;;;0.55;;
47545;SDS011;50104;52.002;4.688;2023-06-26T12:51:33;2.78;;;0.90;;
47545;SDS011;50104;52.002;4.688;2023-06-26T12:56:34;2.92;;;0.93;;
47545;SDS011;50104;52.002;4.688;2023-06-26T13:01:35;2.78;;;0.90;;
47545;SDS011;50104;52.002;4.688;2023-06-26T13:06:36;3.33;;;0.68;;
47545;SDS011;50104;52.002;4.688;2023-06-26T13:11:37;3.85;;;0.80;;
47545;SDS011;50104;52.002;4.688;2023-06-26T13:16:38;1.63;;;0.63;;
47545;SDS011;50104;52.002;4.688;2023-06-26T13:21:39;1.38;;;0.75;;
47545;SDS011;50104;52.002;4.688;2023-06-26T13:26:42;1.83;;;0.60;;
47545;SDS011;50104;52.002;4.688;2023-06-26T13:31:43;2.78;;;0.75;;
47545;SDS011;50104;52.002;4.688;2023-06-26T13:36:43;6.05;;;0.80;;
47545;SDS011;50104;52.002;4.688;2023-06-26T13:41:44;3.30;;;0.70;;
47545;SDS011;50104;52.002;4.688;2023-06-26T13:46:46;1.25;;;0.60;;
47545;SDS011;50104;52.002;4.688;2023-06-26T13:51:47;2.95;;;0.80;;
47545;SDS011;50104;52.002;4.688;2023-06-26T13:56:48;2.35;;;0.88;;
47545;SDS011;50104;52.002;4.688;2023-06-26T14:01:49;1.75;;;0.80;;
47545;SDS011;50104;52.002;4.688;2023-06-26T14:06:49;4.75;;;1.00;;
47545;SDS011;50104;52.002;4.688;2023-06-26T14:11:50;1.80;;;0.90;;
47545;SDS011;50104;52.002;4.688;2023-06-26T14:16:51;1.65;;;0.68;;
47545;SDS011;50104;52.002;4.688;2023-06-26T14:21:52;1.40;;;0.70;;
47545;SDS011;50104;52.002;4.688;2023-06-26T14:26:53;2.22;;;0.88;;
47545;SDS011;50104;52.002;4.688;2023-06-26T14:31:54;3.47;;;0.55;;
47545;SDS011;50104;52.002;4.688;2023-06-26T14:36:55;2.72;;;0.70;;
47545;SDS011;50104;52.002;4.688;2023-06-26T14:41:56;1.00;;;0.57;;
47545;SDS011;50104;52.002;4.688;2023-06-26T14:46:56;2.33;;;0.80;;
47545;SDS011;50104;52.002;4.688;2023-06-26T14:51:57;2.15;;;0.70;;
47545;SDS011;50104;52.002;4.688;2023-06-26T14:56:58;4.75;;;1.00;;
47545;SDS011;50104;52.002;4.688;2023-06-26T15:02:00;1.27;;;0.70;;
47545;SDS011;50104;52.002;4.688;2023-06-26T15:07:02;1.35;;;0.75;;
47545;SDS011;50104;52.002;4.688;2023-06-26T15:12:03;2.28;;;1.00;;
47545;SDS011;50104;52.002;4.688;2023-06-26T15:17:04;1.60;;;1.05;;
47545;SDS011;50104;52.002;4.688;2023-06-26T15:22:05;2.17;;;0.80;;
47545;SDS011;50104;52.002;4.688;2023-06-26T15:27:06;2.30;;;0.70;;
47545;SDS011;50104;52.002;4.688;2023-06-26T15:32:07;1.90;;;0.77;;
47545;SDS011;50104;52.002;4.688;2023-06-26T15:37:08;2.17;;;0.70;;
47545;SDS011;50104;52.002;4.688;2023-06-26T15:42:09;1.25;;;0.63;;
47545;SDS011;50104;52.002;4.688;2023-06-26T15:47:10;1.13;;;0.75;;
47545;SDS011;50104;52.002;4.688;2023-06-26T15:52:11;3.78;;;0.90;;
47545;SDS011;50104;52.002;4.688;2023-06-26T15:57:12;1.83;;;0.80;;
47545;SDS011;50104;52.002;4.688;2023-06-26T16:02:13;4.88;;;1.40;;
47545;SDS011;50104;52.002;4.688;2023-06-26T16:07:14;2.58;;;1.30;;
47545;SDS011;50104;52.002;4.688;2023-06-26T16:12:15;2.00;;;0.70;;
47545;SDS011;50104;52.002;4.688;2023-06-26T16:17:16;2.20;;;1.00;;
47545;SDS011;50104;52.002;4.688;2023-06-26T16:22:17;1.77;;;1.10;;
47545;SDS011;50104;52.002;4.688;2023-06-26T16:27:17;1.30;;;0.70;;
47545;SDS011;50104;52.002;4.688;2023-06-26T16:32:18;3.15;;;0.95;;
47545;SDS011;50104;52.002;4.688;2023-06-26T16:37:19;3.40;;;0.88;;
47545;SDS011;50104;52.002;4.688;2023-06-26T16:42:20;2.75;;;1.00;;
47545;SDS011;50104;52.002;4.688;2023-06-26T16:47:21;1.45;;;0.70;;
47545;SDS011;50104;52.002;4.688;2023-06-26T16:52:22;3.47;;;1.23;;
47545;SDS011;50104;52.002;4.688;2023-06-26T16:57:23;3.40;;;0.95;;
47545;SDS011;50104;52.002;4.688;2023-06-26T17:02:23;2.63;;;0.80;;
47545;SDS011;50104;52.002;4.688;2023-06-26T17:07:24;2.80;;;1.08;;
47545;SDS011;50104;52.002;4.688;2023-06-26T17:12:25;1.38;;;0.85;;
47545;SDS011;50104;52.002;4.688;2023-06-26T17:17:26;1.45;;;0.82;;
47545;SDS011;50104;52.002;4.688;2023-06-26T17:22:27;4.40;;;1.77;;
47545;SDS011;50104;52.002;4.688;2023-06-26T17:27:29;2.33;;;0.88;;
47545;SDS011;50104;52.002;4.688;2023-06-26T17:32:33;2.97;;;0.93;;
47545;SDS011;50104;52.002;4.688;2023-06-26T17:37:34;2.70;;;0.90;;
47545;SDS011;50104;52.002;4.688;2023-06-26T17:42:35;3.90;;;0.90;;
47545;SDS011;50104;52.002;4.688;2023-06-26T17:47:42;3.13;;;0.90;;
47545;SDS011;50104;52.002;4.688;2023-06-26T17:52:43;2.20;;;0.75;;
47545;SDS011;50104;52.002;4.688;2023-06-26T17:57:44;3.13;;;1.00;;
47545;SDS011;50104;52.002;4.688;2023-06-26T18:02:45;1.33;;;0.73;;
47545;SDS011;50104;52.002;4.688;2023-06-26T18:07:46;5.35;;;1.40;;
47545;SDS011;50104;52.002;4.688;2023-06-26T18:12:46;2.85;;;0.98;;
47545;SDS011;50104;52.002;4.688;2023-06-26T18:17:51;3.60;;;1.15;;
47545;SDS011;50104;52.002;4.688;2023-06-26T18:22:52;1.77;;;1.00;;
47545;SDS011;50104;52.002;4.688;2023-06-26T18:27:55;3.20;;;1.00;;
47545;SDS011;50104;52.002;4.688;2023-06-26T18:32:56;2.38;;;0.80;;
47545;SDS011;50104;52.002;4.688;2023-06-26T18:37:57;3.78;;;1.17;;
47545;SDS011;50104;52.002;4.688;2023-06-26T18:42:58;2.25;;;0.90;;
47545;SDS011;50104;52.002;4.688;2023-06-26T18:47:58;2.65;;;1.42;;
47545;SDS011;50104;52.002;4.688;2023-06-26T18:52:59;3.95;;;1.20;;
47545;SDS011;50104;52.002;4.688;2023-06-26T18:58:00;3.72;;;1.17;;
47545;SDS011;50104;52.002;4.688;2023-06-26T19:03:02;3.53;;;1.20;;
47545;SDS011;50104;52.002;4.688;2023-06-26T19:08:03;1.92;;;0.80;;
47545;SDS011;50104;52.002;4.688;2023-06-26T19:13:05;2.65;;;1.17;;
47545;SDS011;50104;52.002;4.688;2023-06-26T19:18:06;3.08;;;1.20;;
47545;SDS011;50104;52.002;4.688;2023-06-26T19:23:07;2.78;;;1.00;;
47545;SDS011;50104;52.002;4.688;2023-06-26T19:28:08;5.55;;;1.00;;
47545;SDS011;50104;52.002;4.688;2023-06-26T19:33:11;3.83;;;2.00;;
47545;SDS011;50104;52.002;4.688;2023-06-26T19:38:12;6.07;;;1.48;;
47545;SDS011;50104;52.002;4.688;2023-06-26T19:43:13;1.80;;;1.08;;
47545;SDS011;50104;52.002;4.688;2023-06-26T19:48:14;4.72;;;1.33;;
47545;SDS011;50104;52.002;4.688;2023-06-26T19:53:16;6.03;;;1.42;;
47545;SDS011;50104;52.002;4.688;2023-06-26T19:58:17;2.65;;;1.33;;
47545;SDS011;50104;52.002;4.688;2023-06-26T20:03:18;2.42;;;1.25;;
47545;SDS011;50104;52.002;4.688;2023-06-26T20:08:19;3.83;;;1.25;;
47545;SDS011;50104;52.002;4.688;2023-06-26T20:13:20;5.18;;;1.25;;
47545;SDS011;50104;52.002;4.688;2023-06-26T20:18:21;6.68;;;1.50;;
47545;SDS011;50104;52.002;4.688;2023-06-26T20:23:23;6.20;;;1.30;;
47545;SDS011;50104;52.002;4.688;2023-06-26T20:28:24;4.30;;;1.33;;
47545;SDS011;50104;52.002;4.688;2023-06-26T20:33:25;2.72;;;1.58;;
47545;SDS011;50104;52.002;4.688;2023-06-26T20:38:26;5.22;;;1.58;;
47545;SDS011;50104;52.002;4.688;2023-06-26T20:43:27;3.60;;;1.38;;
47545;SDS011;50104;52.002;4.688;2023-06-26T20:48:28;3.00;;;1.27;;
47545;SDS011;50104;52.002;4.688;2023-06-26T20:53:29;5.05;;;2.28;;
47545;SDS011;50104;52.002;4.688;2023-06-26T20:58:30;4.00;;;1.17;;
47545;SDS011;50104;52.002;4.688;2023-06-26T21:03:31;4.97;;;1.67;;
47545;SDS011;50104;52.002;4.688;2023-06-26T21:08:32;4.80;;;1.60;;
47545;SDS011;50104;52.002;4.688;2023-06-26T21:13:33;4.75;;;2.10;;
47545;SDS011;50104;52.002;4.688;2023-06-26T21:18:34;4.00;;;1.60;;
47545;SDS011;50104;52.002;4.688;2023-06-26T21:23:35;5.00;;;1.98;;
47545;SDS011;50104;52.002;4.688;2023-06-26T21:28:35;2.95;;;1.42;;
47545;SDS011;50104;52.002;4.688;2023-06-26T21:33:36;4.50;;;1.50;;
47545;SDS011;50104;52.002;4.688;2023-06-26T21:38:37;5.95;;;1.55;;
47545;SDS011;50104;52.002;4.688;2023-06-26T21:43:38;5.13;;;1.52;;
47545;SDS011;50104;52.002;4.688;2023-06-26T21:48:39;4.00;;;2.03;;
47545;SDS011;50104;52.002;4.688;2023-06-26T21:53:39;4.03;;;1.80;;
47545;SDS011;50104;52.002;4.688;2023-06-26T21:58:40;8.02;;;1.65;;
47545;SDS011;50104;52.002;4.688;2023-06-26T22:03:41;4.80;;;1.30;;
47545;SDS011;50104;52.002;4.688;2023-06-26T22:08:42;2.78;;;1.42;;
47545;SDS011;50104;52.002;4.688;2023-06-26T22:13:43;2.38;;;1.55;;
47545;SDS011;50104;52.002;4.688;2023-06-26T22:18:43;5.18;;;1.77;;
47545;SDS011;50104;52.002;4.688;2023-06-26T22:23:44;3.40;;;2.13;;
47545;SDS011;50104;52.002;4.688;2023-06-26T22:28:46;3.97;;;1.90;;
47545;SDS011;50104;52.002;4.688;2023-06-26T22:33:47;6.53;;;3.03;;
47545;SDS011;50104;52.002;4.688;2023-06-26T22:38:47;5.15;;;1.80;;
47545;SDS011;50104;52.002;4.688;2023-06-26T22:43:48;8.88;;;2.03;;
47545;SDS011;50104;52.002;4.688;2023-06-26T22:48:49;9.10;;;1.85;;
47545;SDS011;50104;52.002;4.688;2023-06-26T22:53:50;5.57;;;2.03;;
47545;SDS011;50104;52.002;4.688;2023-06-26T22:58:51;10.43;;;1.77;;
47545;SDS011;50104;52.002;4.688;2023-06-26T23:03:52;5.63;;;2.15;;
47545;SDS011;50104;52.002;4.688;2023-06-26T23:08:53;5.63;;;2.53;;
47545;SDS011;50104;52.002;4.688;2023-06-26T23:13:54;6.35;;;2.20;;
47545;SDS011;50104;52.002;4.688;2023-06-26T23:18:55;6.70;;;1.98;;
47545;SDS011;50104;52.002;4.688;2023-06-26T23:23:55;8.68;;;1.88;;
47545;SDS011;50104;52.002;4.688;2023-06-26T23:28:57;6.57;;;1.92;;
47545;SDS011;50104;52.002;4.688;2023-06-26T23:33:58;9.98;;;2.05;;
47545;SDS011;50104;52.002;4.688;2023-06-26T23:38:58;6.70;;;1.88;;
47545;SDS011;50104;52.002;4.688;2023-06-26T23:44:00;9.18;;;2.10;;
47545;SDS011;50104;52.002;4.688;2023-06-26T23:49:03;9.20;;;2.08;;
47545;SDS011;50104;52.002;4.688;2023-06-26T23:54:04;6.18;;;2.00;;
47545;SDS011;50104;52.002;4.688;2023-06-26T23:59:05;7.53;;;2.33;;
